sensor_id;sensor_type;location;lat;lon;timestamp;temperature;humidity
42201;DHT22;27869;51.442;7.540;2022-07-29T00:00:12;18.70;91.00
42201;DHT22;27869;51.442;7.540;2022-07-29T00:02:39;18.70;91.10
42201;DHT22;27869;51.442;7.540;2022-07-29T00:05:08;18.70;91.50
42201;DHT22;27869;51.442;7.540;2022-07-29T00:07:36;18.70;91.20
42201;DHT22;27869;51.442;7.540;2022-07-29T00:10:04;18.60;91.00
42201;DHT22;27869;51.442;7.540;2022-07-29T00:12:30;18.60;91.20
42201;DHT22;27869;51.442;7.540;2022-07-29T00:14:57;18.60;91.20
42201;DHT22;27869;51.442;7.540;2022-07-29T00:17:24;18.60;91.40
42201;DHT22;27869;51.442;7.540;2022-07-29T00:19:52;18.60;91.70
42201;DHT22;27869;51.442;7.540;2022-07-29T00:22:19;18.60;91.80
42201;DHT22;27869;51.442;7.540;2022-07-29T00:24:48;18.60;92.00
42201;DHT22;27869;51.442;7.540;2022-07-29T00:27:15;18.60;91.70
42201;DHT22;27869;51.442;7.540;2022-07-29T00:29:42;18.60;91.70
42201;DHT22;27869;51.442;7.540;2022-07-29T00:32:09;18.60;92.00
42201;DHT22;27869;51.442;7.540;2022-07-29T00:34:36;18.50;91.80
42201;DHT22;27869;51.442;7.540;2022-07-29T00:37:20;18.50;92.00
42201;DHT22;27869;51.442;7.540;2022-07-29T00:39:49;18.50;92.00
42201;DHT22;27869;51.442;7.540;2022-07-29T00:42:16;18.50;91.80
42201;DHT22;27869;51.442;7.540;2022-07-29T00:44:43;18.40;92.10
42201;DHT22;27869;51.442;7.540;2022-07-29T00:47:11;18.40;91.90
42201;DHT22;27869;51.442;7.540;2022-07-29T00:49:39;18.40;92.10
42201;DHT22;27869;51.442;7.540;2022-07-29T00:52:07;18.40;91.90
42201;DHT22;27869;51.442;7.540;2022-07-29T00:54:35;18.40;92.30
42201;DHT22;27869;51.442;7.540;2022-07-29T00:57:04;18.40;92.00
42201;DHT22;27869;51.442;7.540;2022-07-29T00:59:32;18.40;92.70
42201;DHT22;27869;51.442;7.540;2022-07-29T01:01:59;18.40;93.30
42201;DHT22;27869;51.442;7.540;2022-07-29T01:04:26;18.40;93.50
42201;DHT22;27869;51.442;7.540;2022-07-29T01:06:55;18.30;94.00
42201;DHT22;27869;51.442;7.540;2022-07-29T01:09:22;18.30;94.80
42201;DHT22;27869;51.442;7.540;2022-07-29T01:11:50;18.20;94.50
42201;DHT22;27869;51.442;7.540;2022-07-29T01:14:18;18.20;95.00
42201;DHT22;27869;51.442;7.540;2022-07-29T01:16:52;18.10;95.20
42201;DHT22;27869;51.442;7.540;2022-07-29T01:19:42;18.10;95.90
42201;DHT22;27869;51.442;7.540;2022-07-29T01:22:27;18.10;96.10
42201;DHT22;27869;51.442;7.540;2022-07-29T01:25:10;18.00;96.40
42201;DHT22;27869;51.442;7.540;2022-07-29T01:27:44;17.90;96.20
42201;DHT22;27869;51.442;7.540;2022-07-29T01:30:15;17.90;96.40
42201;DHT22;27869;51.442;7.540;2022-07-29T01:32:43;17.80;96.50
42201;DHT22;27869;51.442;7.540;2022-07-29T01:35:18;17.80;96.90
42201;DHT22;27869;51.442;7.540;2022-07-29T01:37:51;17.70;97.40
42201;DHT22;27869;51.442;7.540;2022-07-29T01:40:25;17.70;97.60
42201;DHT22;27869;51.442;7.540;2022-07-29T01:42:55;17.70;97.70
42201;DHT22;27869;51.442;7.540;2022-07-29T01:45:28;17.60;97.60
42201;DHT22;27869;51.442;7.540;2022-07-29T01:47:59;17.60;97.80
42201;DHT22;27869;51.442;7.540;2022-07-29T01:50:33;17.50;98.00
42201;DHT22;27869;51.442;7.540;2022-07-29T01:53:03;17.50;98.70
42201;DHT22;27869;51.442;7.540;2022-07-29T01:55:34;17.50;98.70
42201;DHT22;27869;51.442;7.540;2022-07-29T01:58:03;17.40;99.10
42201;DHT22;27869;51.442;7.540;2022-07-29T02:00:33;17.40;99.70
42201;DHT22;27869;51.442;7.540;2022-07-29T02:03:05;17.30;99.80
42201;DHT22;27869;51.442;7.540;2022-07-29T02:05:34;17.20;99.90
42201;DHT22;27869;51.442;7.540;2022-07-29T02:08:02;17.20;99.90
42201;DHT22;27869;51.442;7.540;2022-07-29T02:10:32;17.20;99.90
42201;DHT22;27869;51.442;7.540;2022-07-29T02:13:00;17.10;99.90
42201;DHT22;27869;51.442;7.540;2022-07-29T02:15:32;17.10;99.90
42201;DHT22;27869;51.442;7.540;2022-07-29T02:18:02;17.00;99.90
42201;DHT22;27869;51.442;7.540;2022-07-29T02:20:31;17.00;99.90
42201;DHT22;27869;51.442;7.540;2022-07-29T02:22:59;16.90;99.90
42201;DHT22;27869;51.442;7.540;2022-07-29T02:25:27;16.90;99.90
42201;DHT22;27869;51.442;7.540;2022-07-29T02:27:55;16.90;99.90
42201;DHT22;27869;51.442;7.540;2022-07-29T02:30:24;16.90;99.90
42201;DHT22;27869;51.442;7.540;2022-07-29T02:32:53;16.80;99.90
42201;DHT22;27869;51.442;7.540;2022-07-29T02:35:22;16.80;99.90
42201;DHT22;27869;51.442;7.540;2022-07-29T02:37:49;16.70;99.90
42201;DHT22;27869;51.442;7.540;2022-07-29T02:40:32;16.70;99.90
42201;DHT22;27869;51.442;7.540;2022-07-29T02:43:00;16.70;99.90
42201;DHT22;27869;51.442;7.540;2022-07-29T02:45:29;16.70;99.90
42201;DHT22;27869;51.442;7.540;2022-07-29T02:47:59;16.70;99.90
42201;DHT22;27869;51.442;7.540;2022-07-29T02:50:32;16.70;99.90
42201;DHT22;27869;51.442;7.540;2022-07-29T02:53:05;16.60;99.90
42201;DHT22;27869;51.442;7.540;2022-07-29T02:55:34;16.60;99.90
42201;DHT22;27869;51.442;7.540;2022-07-29T02:58:07;16.60;99.90
42201;DHT22;27869;51.442;7.540;2022-07-29T03:00:37;16.50;99.90
42201;DHT22;27869;51.442;7.540;2022-07-29T03:03:10;16.50;99.90
42201;DHT22;27869;51.442;7.540;2022-07-29T03:05:39;16.40;99.90
42201;DHT22;27869;51.442;7.540;2022-07-29T03:08:09;16.40;99.90
42201;DHT22;27869;51.442;7.540;2022-07-29T03:10:37;16.40;99.90
42201;DHT22;27869;51.442;7.540;2022-07-29T03:13:06;16.40;99.90
42201;DHT22;27869;51.442;7.540;2022-07-29T03:15:34;16.40;99.90
42201;DHT22;27869;51.442;7.540;2022-07-29T03:18:02;16.40;99.90
42201;DHT22;27869;51.442;7.540;2022-07-29T03:20:30;16.30;99.90
42201;DHT22;27869;51.442;7.540;2022-07-29T03:22:57;16.40;99.90
42201;DHT22;27869;51.442;7.540;2022-07-29T03:25:24;16.30;99.90
42201;DHT22;27869;51.442;7.540;2022-07-29T03:27:52;16.30;99.90
42201;DHT22;27869;51.442;7.540;2022-07-29T03:30:19;16.30;99.90
42201;DHT22;27869;51.442;7.540;2022-07-29T03:32:46;16.30;99.90
42201;DHT22;27869;51.442;7.540;2022-07-29T03:35:13;16.30;99.90
42201;DHT22;27869;51.442;7.540;2022-07-29T03:37:43;16.30;99.90
42201;DHT22;27869;51.442;7.540;2022-07-29T03:40:14;16.30;99.90
42201;DHT22;27869;51.442;7.540;2022-07-29T03:42:43;16.30;99.90
42201;DHT22;27869;51.442;7.540;2022-07-29T03:45:15;16.30;99.90
42201;DHT22;27869;51.442;7.540;2022-07-29T03:47:48;16.20;99.90
42201;DHT22;27869;51.442;7.540;2022-07-29T03:50:16;16.20;99.90
42201;DHT22;27869;51.442;7.540;2022-07-29T03:52:46;16.20;99.90
42201;DHT22;27869;51.442;7.540;2022-07-29T03:55:14;16.20;99.90
42201;DHT22;27869;51.442;7.540;2022-07-29T03:57:41;16.20;99.90
42201;DHT22;27869;51.442;7.540;2022-07-29T04:00:09;16.20;99.90
42201;DHT22;27869;51.442;7.540;2022-07-29T04:02:36;16.20;99.90
42201;DHT22;27869;51.442;7.540;2022-07-29T04:05:05;16.10;99.90
42201;DHT22;27869;51.442;7.540;2022-07-29T04:07:32;16.20;99.90
42201;DHT22;27869;51.442;7.540;2022-07-29T04:10:00;16.20;99.90
42201;DHT22;27869;51.442;7.540;2022-07-29T04:12:27;16.10;99.90
42201;DHT22;27869;51.442;7.540;2022-07-29T04:14:54;16.10;99.90
42201;DHT22;27869;51.442;7.540;2022-07-29T04:17:20;16.10;99.90
42201;DHT22;27869;51.442;7.540;2022-07-29T04:19:47;16.10;99.90
42201;DHT22;27869;51.442;7.540;2022-07-29T04:22:14;16.10;99.90
42201;DHT22;27869;51.442;7.540;2022-07-29T04:24:41;16.10;99.90
42201;DHT22;27869;51.442;7.540;2022-07-29T04:27:09;16.10;99.90
42201;DHT22;27869;51.442;7.540;2022-07-29T04:29:36;16.00;99.90
42201;DHT22;27869;51.442;7.540;2022-07-29T04:32:04;16.00;99.90
42201;DHT22;27869;51.442;7.540;2022-07-29T04:34:31;16.00;99.90
42201;DHT22;27869;51.442;7.540;2022-07-29T04:36:58;16.00;99.90
42201;DHT22;27869;51.442;7.540;2022-07-29T04:39:24;16.00;99.90
42201;DHT22;27869;51.442;7.540;2022-07-29T04:41:51;16.00;99.90
42201;DHT22;27869;51.442;7.540;2022-07-29T04:44:20;16.10;99.90
42201;DHT22;27869;51.442;7.540;2022-07-29T04:46:47;16.10;99.90
42201;DHT22;27869;51.442;7.540;2022-07-29T04:49:13;16.10;99.90
42201;DHT22;27869;51.442;7.540;2022-07-29T04:51:40;16.10;99.90
42201;DHT22;27869;51.442;7.540;2022-07-29T04:54:07;16.20;99.90
42201;DHT22;27869;51.442;7.540;2022-07-29T04:56:34;16.20;99.90
42201;DHT22;27869;51.442;7.540;2022-07-29T04:59:01;16.20;99.90
42201;DHT22;27869;51.442;7.540;2022-07-29T05:01:29;16.30;99.90
42201;DHT22;27869;51.442;7.540;2022-07-29T05:03:56;16.30;99.90
42201;DHT22;27869;51.442;7.540;2022-07-29T05:06:24;16.30;99.90
42201;DHT22;27869;51.442;7.540;2022-07-29T05:08:51;16.30;99.90
42201;DHT22;27869;51.442;7.540;2022-07-29T05:11:18;16.30;99.90
42201;DHT22;27869;51.442;7.540;2022-07-29T05:13:45;16.40;99.90
42201;DHT22;27869;51.442;7.540;2022-07-29T05:16:12;16.40;99.90
42201;DHT22;27869;51.442;7.540;2022-07-29T05:18:40;16.40;99.90
42201;DHT22;27869;51.442;7.540;2022-07-29T05:21:07;16.40;99.90
42201;DHT22;27869;51.442;7.540;2022-07-29T05:23:34;16.40;99.90
42201;DHT22;27869;51.442;7.540;2022-07-29T05:26:01;16.50;99.90
42201;DHT22;27869;51.442;7.540;2022-07-29T05:28:28;16.50;99.90
42201;DHT22;27869;51.442;7.540;2022-07-29T05:30:55;16.50;99.90
42201;DHT22;27869;51.442;7.540;2022-07-29T05:33:22;16.50;99.90
42201;DHT22;27869;51.442;7.540;2022-07-29T05:35:50;16.50;99.90
42201;DHT22;27869;51.442;7.540;2022-07-29T05:38:17;16.60;99.90
42201;DHT22;27869;51.442;7.540;2022-07-29T05:40:44;16.60;99.90
42201;DHT22;27869;51.442;7.540;2022-07-29T05:43:11;16.70;99.90
42201;DHT22;27869;51.442;7.540;2022-07-29T05:45:39;16.70;99.90
42201;DHT22;27869;51.442;7.540;2022-07-29T05:48:05;16.70;99.90
42201;DHT22;27869;51.442;7.540;2022-07-29T05:50:32;16.70;99.90
42201;DHT22;27869;51.442;7.540;2022-07-29T05:53:01;16.70;99.90
42201;DHT22;27869;51.442;7.540;2022-07-29T05:55:27;16.80;99.90
42201;DHT22;27869;51.442;7.540;2022-07-29T05:57:54;16.80;99.90
42201;DHT22;27869;51.442;7.540;2022-07-29T06:00:21;16.80;99.90
42201;DHT22;27869;51.442;7.540;2022-07-29T06:02:48;16.90;99.90
42201;DHT22;27869;51.442;7.540;2022-07-29T06:05:15;16.90;99.90
42201;DHT22;27869;51.442;7.540;2022-07-29T06:07:42;17.00;99.90
42201;DHT22;27869;51.442;7.540;2022-07-29T06:10:11;17.00;99.90
42201;DHT22;27869;51.442;7.540;2022-07-29T06:12:38;17.10;99.90
42201;DHT22;27869;51.442;7.540;2022-07-29T06:15:06;17.10;99.90
42201;DHT22;27869;51.442;7.540;2022-07-29T06:17:33;17.10;99.90
42201;DHT22;27869;51.442;7.540;2022-07-29T06:20:00;17.20;99.90
42201;DHT22;27869;51.442;7.540;2022-07-29T06:22:27;17.20;99.90
42201;DHT22;27869;51.442;7.540;2022-07-29T06:24:54;17.20;99.90
42201;DHT22;27869;51.442;7.540;2022-07-29T06:27:22;17.20;99.90
42201;DHT22;27869;51.442;7.540;2022-07-29T06:29:49;17.20;99.90
42201;DHT22;27869;51.442;7.540;2022-07-29T06:32:16;17.30;99.90
42201;DHT22;27869;51.442;7.540;2022-07-29T06:34:44;17.30;99.90
42201;DHT22;27869;51.442;7.540;2022-07-29T06:37:11;17.40;99.90
42201;DHT22;27869;51.442;7.540;2022-07-29T06:39:38;17.40;99.90
42201;DHT22;27869;51.442;7.540;2022-07-29T06:42:05;17.50;99.90
42201;DHT22;27869;51.442;7.540;2022-07-29T06:44:33;17.40;99.90
42201;DHT22;27869;51.442;7.540;2022-07-29T06:47:00;17.50;99.90
42201;DHT22;27869;51.442;7.540;2022-07-29T06:49:28;17.50;99.90
42201;DHT22;27869;51.442;7.540;2022-07-29T06:51:55;17.60;99.90
42201;DHT22;27869;51.442;7.540;2022-07-29T06:54:22;17.70;99.90
42201;DHT22;27869;51.442;7.540;2022-07-29T06:56:48;17.70;99.90
42201;DHT22;27869;51.442;7.540;2022-07-29T06:59:15;17.80;99.90
42201;DHT22;27869;51.442;7.540;2022-07-29T07:01:44;17.90;99.90
42201;DHT22;27869;51.442;7.540;2022-07-29T07:04:11;17.90;99.90
42201;DHT22;27869;51.442;7.540;2022-07-29T07:06:39;18.00;99.90
42201;DHT22;27869;51.442;7.540;2022-07-29T07:09:06;18.10;99.90
42201;DHT22;27869;51.442;7.540;2022-07-29T07:11:33;18.20;99.90
42201;DHT22;27869;51.442;7.540;2022-07-29T07:14:00;18.20;99.90
42201;DHT22;27869;51.442;7.540;2022-07-29T07:16:27;18.30;99.90
42201;DHT22;27869;51.442;7.540;2022-07-29T07:18:55;18.40;99.90
42201;DHT22;27869;51.442;7.540;2022-07-29T07:21:22;18.40;99.90
42201;DHT22;27869;51.442;7.540;2022-07-29T07:23:49;18.50;99.90
42201;DHT22;27869;51.442;7.540;2022-07-29T07:26:16;18.60;99.90
42201;DHT22;27869;51.442;7.540;2022-07-29T07:28:43;18.70;99.90
42201;DHT22;27869;51.442;7.540;2022-07-29T07:31:10;18.70;99.90
42201;DHT22;27869;51.442;7.540;2022-07-29T07:33:37;18.80;99.90
42201;DHT22;27869;51.442;7.540;2022-07-29T07:36:05;18.90;99.90
42201;DHT22;27869;51.442;7.540;2022-07-29T07:38:32;19.00;99.90
42201;DHT22;27869;51.442;7.540;2022-07-29T07:41:00;19.20;99.90
42201;DHT22;27869;51.442;7.540;2022-07-29T07:43:27;19.30;99.90
42201;DHT22;27869;51.442;7.540;2022-07-29T07:45:53;19.40;99.90
42201;DHT22;27869;51.442;7.540;2022-07-29T07:48:20;19.60;99.90
42201;DHT22;27869;51.442;7.540;2022-07-29T07:50:47;19.70;99.90
42201;DHT22;27869;51.442;7.540;2022-07-29T07:53:17;19.80;99.90
42201;DHT22;27869;51.442;7.540;2022-07-29T07:55:44;19.90;99.90
42201;DHT22;27869;51.442;7.540;2022-07-29T07:58:11;20.10;99.90
42201;DHT22;27869;51.442;7.540;2022-07-29T08:00:38;20.20;99.90
42201;DHT22;27869;51.442;7.540;2022-07-29T08:03:05;20.30;99.90
42201;DHT22;27869;51.442;7.540;2022-07-29T08:05:32;20.40;99.90
42201;DHT22;27869;51.442;7.540;2022-07-29T08:07:59;20.50;99.90
42201;DHT22;27869;51.442;7.540;2022-07-29T08:10:28;20.60;99.90
42201;DHT22;27869;51.442;7.540;2022-07-29T08:13:12;20.70;99.90
42201;DHT22;27869;51.442;7.540;2022-07-29T08:15:40;20.80;99.90
42201;DHT22;27869;51.442;7.540;2022-07-29T08:18:08;20.90;99.90
42201;DHT22;27869;51.442;7.540;2022-07-29T08:20:36;21.00;99.90
42201;DHT22;27869;51.442;7.540;2022-07-29T08:23:04;21.10;99.90
42201;DHT22;27869;51.442;7.540;2022-07-29T08:25:33;21.20;99.90
42201;DHT22;27869;51.442;7.540;2022-07-29T08:28:00;21.30;99.90
42201;DHT22;27869;51.442;7.540;2022-07-29T08:30:26;21.40;99.90
42201;DHT22;27869;51.442;7.540;2022-07-29T08:32:55;21.60;99.90
42201;DHT22;27869;51.442;7.540;2022-07-29T08:35:23;21.80;99.90
42201;DHT22;27869;51.442;7.540;2022-07-29T08:37:50;22.00;99.90
42201;DHT22;27869;51.442;7.540;2022-07-29T08:40:17;22.00;99.90
42201;DHT22;27869;51.442;7.540;2022-07-29T08:42:45;22.10;99.90
42201;DHT22;27869;51.442;7.540;2022-07-29T08:45:12;22.20;99.20
42201;DHT22;27869;51.442;7.540;2022-07-29T08:47:40;22.20;99.20
42201;DHT22;27869;51.442;7.540;2022-07-29T08:50:08;22.30;99.40
42201;DHT22;27869;51.442;7.540;2022-07-29T08:52:38;22.30;99.10
42201;DHT22;27869;51.442;7.540;2022-07-29T08:55:06;22.40;98.90
42201;DHT22;27869;51.442;7.540;2022-07-29T08:57:34;22.40;98.30
42201;DHT22;27869;51.442;7.540;2022-07-29T09:00:06;22.40;98.70
42201;DHT22;27869;51.442;7.540;2022-07-29T09:02:40;22.50;98.80
42201;DHT22;27869;51.442;7.540;2022-07-29T09:05:09;22.60;98.10
42201;DHT22;27869;51.442;7.540;2022-07-29T09:07:39;22.70;98.40
42201;DHT22;27869;51.442;7.540;2022-07-29T09:10:08;22.80;97.90
42201;DHT22;27869;51.442;7.540;2022-07-29T09:12:35;22.90;97.90
42201;DHT22;27869;51.442;7.540;2022-07-29T09:15:04;22.90;97.50
42201;DHT22;27869;51.442;7.540;2022-07-29T09:17:42;23.00;97.60
42201;DHT22;27869;51.442;7.540;2022-07-29T09:20:10;23.10;95.90
42201;DHT22;27869;51.442;7.540;2022-07-29T09:22:37;23.10;97.30
42201;DHT22;27869;51.442;7.540;2022-07-29T09:25:05;23.10;96.70
42201;DHT22;27869;51.442;7.540;2022-07-29T09:27:32;23.10;97.00
42201;DHT22;27869;51.442;7.540;2022-07-29T09:30:01;23.20;96.70
42201;DHT22;27869;51.442;7.540;2022-07-29T09:32:30;23.10;95.80
42201;DHT22;27869;51.442;7.540;2022-07-29T09:35:17;23.20;96.00
42201;DHT22;27869;51.442;7.540;2022-07-29T09:37:44;23.20;94.80
42201;DHT22;27869;51.442;7.540;2022-07-29T09:40:13;23.20;95.70
42201;DHT22;27869;51.442;7.540;2022-07-29T09:42:41;23.20;95.40
42201;DHT22;27869;51.442;7.540;2022-07-29T09:45:09;23.20;95.40
42201;DHT22;27869;51.442;7.540;2022-07-29T09:47:45;23.40;94.60
42201;DHT22;27869;51.442;7.540;2022-07-29T09:50:14;23.50;94.10
42201;DHT22;27869;51.442;7.540;2022-07-29T09:52:46;23.50;94.50
42201;DHT22;27869;51.442;7.540;2022-07-29T09:55:13;23.60;93.70
42201;DHT22;27869;51.442;7.540;2022-07-29T09:57:40;23.60;94.40
42201;DHT22;27869;51.442;7.540;2022-07-29T10:00:09;23.60;94.40
42201;DHT22;27869;51.442;7.540;2022-07-29T10:02:38;23.60;94.80
42201;DHT22;27869;51.442;7.540;2022-07-29T10:05:17;23.60;95.10
42201;DHT22;27869;51.442;7.540;2022-07-29T10:07:46;23.60;95.30
42201;DHT22;27869;51.442;7.540;2022-07-29T10:10:20;23.60;95.40
42201;DHT22;27869;51.442;7.540;2022-07-29T10:12:52;23.60;94.90
42201;DHT22;27869;51.442;7.540;2022-07-29T10:15:21;23.60;95.40
42201;DHT22;27869;51.442;7.540;2022-07-29T10:17:48;23.50;95.50
42201;DHT22;27869;51.442;7.540;2022-07-29T10:20:17;23.40;95.70
42201;DHT22;27869;51.442;7.540;2022-07-29T10:22:45;23.30;95.70
42201;DHT22;27869;51.442;7.540;2022-07-29T10:25:14;23.20;96.00
42201;DHT22;27869;51.442;7.540;2022-07-29T10:27:42;23.20;96.00
42201;DHT22;27869;51.442;7.540;2022-07-29T10:30:10;23.20;96.20
42201;DHT22;27869;51.442;7.540;2022-07-29T10:32:53;23.10;96.10
42201;DHT22;27869;51.442;7.540;2022-07-29T10:35:51;23.00;96.20
42201;DHT22;27869;51.442;7.540;2022-07-29T10:38:31;23.00;96.20
42201;DHT22;27869;51.442;7.540;2022-07-29T10:41:11;23.00;96.10
42201;DHT22;27869;51.442;7.540;2022-07-29T10:43:58;22.80;95.90
42201;DHT22;27869;51.442;7.540;2022-07-29T10:46:26;22.80;96.50
42201;DHT22;27869;51.442;7.540;2022-07-29T10:49:11;22.70;96.40
42201;DHT22;27869;51.442;7.540;2022-07-29T10:52:08;22.70;96.40
42201;DHT22;27869;51.442;7.540;2022-07-29T10:54:47;22.50;96.10
42201;DHT22;27869;51.442;7.540;2022-07-29T10:57:21;22.40;96.70
42201;DHT22;27869;51.442;7.540;2022-07-29T11:02:44;22.30;96.90
42201;DHT22;27869;51.442;7.540;2022-07-29T11:05:13;22.30;96.90
42201;DHT22;27869;51.442;7.540;2022-07-29T11:10:44;22.30;97.50
42201;DHT22;27869;51.442;7.540;2022-07-29T11:13:11;22.30;97.60
42201;DHT22;27869;51.442;7.540;2022-07-29T11:15:52;22.30;97.50
42201;DHT22;27869;51.442;7.540;2022-07-29T11:18:19;22.30;98.20
42201;DHT22;27869;51.442;7.540;2022-07-29T11:20:47;22.20;98.80
42201;DHT22;27869;51.442;7.540;2022-07-29T11:23:23;22.20;99.50
42201;DHT22;27869;51.442;7.540;2022-07-29T11:26:17;22.20;98.50
42201;DHT22;27869;51.442;7.540;2022-07-29T11:29:14;22.20;99.40
42201;DHT22;27869;51.442;7.540;2022-07-29T11:31:44;22.30;99.30
42201;DHT22;27869;51.442;7.540;2022-07-29T11:34:19;22.30;98.90
42201;DHT22;27869;51.442;7.540;2022-07-29T11:37:18;22.40;98.80
42201;DHT22;27869;51.442;7.540;2022-07-29T11:39:46;22.50;98.50
42201;DHT22;27869;51.442;7.540;2022-07-29T11:45:03;22.50;99.20
42201;DHT22;27869;51.442;7.540;2022-07-29T11:47:32;22.50;98.60
42201;DHT22;27869;51.442;7.540;2022-07-29T11:50:01;22.60;98.40
42201;DHT22;27869;51.442;7.540;2022-07-29T11:52:32;22.60;98.30
42201;DHT22;27869;51.442;7.540;2022-07-29T11:55:01;22.70;98.50
42201;DHT22;27869;51.442;7.540;2022-07-29T11:57:29;22.80;98.10
42201;DHT22;27869;51.442;7.540;2022-07-29T11:59:58;22.80;97.90
42201;DHT22;27869;51.442;7.540;2022-07-29T12:02:38;22.90;97.90
42201;DHT22;27869;51.442;7.540;2022-07-29T12:05:05;22.90;96.90
42201;DHT22;27869;51.442;7.540;2022-07-29T12:07:34;22.90;97.60
42201;DHT22;27869;51.442;7.540;2022-07-29T12:10:03;22.90;97.60
42201;DHT22;27869;51.442;7.540;2022-07-29T12:12:30;22.80;97.70
42201;DHT22;27869;51.442;7.540;2022-07-29T12:14:57;22.80;97.80
42201;DHT22;27869;51.442;7.540;2022-07-29T12:17:26;22.80;98.00
42201;DHT22;27869;51.442;7.540;2022-07-29T12:19:54;22.80;97.90
42201;DHT22;27869;51.442;7.540;2022-07-29T12:22:27;22.80;98.00
42201;DHT22;27869;51.442;7.540;2022-07-29T12:24:55;22.80;98.20
42201;DHT22;27869;51.442;7.540;2022-07-29T12:27:22;22.80;98.20
42201;DHT22;27869;51.442;7.540;2022-07-29T12:29:58;22.80;98.40
42201;DHT22;27869;51.442;7.540;2022-07-29T12:32:33;22.80;98.20
42201;DHT22;27869;51.442;7.540;2022-07-29T12:35:03;22.70;98.00
42201;DHT22;27869;51.442;7.540;2022-07-29T12:37:30;22.70;98.20
42201;DHT22;27869;51.442;7.540;2022-07-29T12:39:58;22.60;98.30
42201;DHT22;27869;51.442;7.540;2022-07-29T12:42:25;22.60;98.10
42201;DHT22;27869;51.442;7.540;2022-07-29T12:44:52;22.60;98.60
42201;DHT22;27869;51.442;7.540;2022-07-29T12:47:19;22.50;98.30
42201;DHT22;27869;51.442;7.540;2022-07-29T12:49:49;22.50;98.40
42201;DHT22;27869;51.442;7.540;2022-07-29T12:52:29;22.50;98.50
42201;DHT22;27869;51.442;7.540;2022-07-29T12:54:57;22.50;98.30
42201;DHT22;27869;51.442;7.540;2022-07-29T12:57:24;22.40;98.60
42201;DHT22;27869;51.442;7.540;2022-07-29T13:00:04;22.40;98.50
42201;DHT22;27869;51.442;7.540;2022-07-29T13:02:33;22.30;98.20
42201;DHT22;27869;51.442;7.540;2022-07-29T13:05:02;22.30;98.50
42201;DHT22;27869;51.442;7.540;2022-07-29T13:07:31;22.30;98.70
42201;DHT22;27869;51.442;7.540;2022-07-29T13:10:14;22.30;98.70
42201;DHT22;27869;51.442;7.540;2022-07-29T13:13:02;22.30;98.40
42201;DHT22;27869;51.442;7.540;2022-07-29T13:15:29;22.30;98.50
42201;DHT22;27869;51.442;7.540;2022-07-29T13:17:56;22.20;98.70
42201;DHT22;27869;51.442;7.540;2022-07-29T13:20:26;22.20;98.60
42201;DHT22;27869;51.442;7.540;2022-07-29T13:22:55;22.20;99.00
42201;DHT22;27869;51.442;7.540;2022-07-29T13:25:26;22.10;98.90
42201;DHT22;27869;51.442;7.540;2022-07-29T13:27:54;22.10;98.90
42201;DHT22;27869;51.442;7.540;2022-07-29T13:30:22;22.10;98.90
42201;DHT22;27869;51.442;7.540;2022-07-29T13:32:50;22.10;99.00
42201;DHT22;27869;51.442;7.540;2022-07-29T13:35:18;22.10;99.50
42201;DHT22;27869;51.442;7.540;2022-07-29T13:37:47;22.10;99.80
42201;DHT22;27869;51.442;7.540;2022-07-29T13:40:14;22.10;99.50
42201;DHT22;27869;51.442;7.540;2022-07-29T13:42:41;22.10;99.60
42201;DHT22;27869;51.442;7.540;2022-07-29T13:45:09;22.10;99.60
42201;DHT22;27869;51.442;7.540;2022-07-29T13:47:37;22.20;99.60
42201;DHT22;27869;51.442;7.540;2022-07-29T13:50:06;22.30;99.90
42201;DHT22;27869;51.442;7.540;2022-07-29T13:52:33;22.40;99.60
42201;DHT22;27869;51.442;7.540;2022-07-29T13:55:02;22.50;99.60
42201;DHT22;27869;51.442;7.540;2022-07-29T13:57:30;22.50;99.00
42201;DHT22;27869;51.442;7.540;2022-07-29T13:59:57;22.50;99.30
42201;DHT22;27869;51.442;7.540;2022-07-29T14:02:24;22.50;99.40
42201;DHT22;27869;51.442;7.540;2022-07-29T14:04:51;22.40;99.00
42201;DHT22;27869;51.442;7.540;2022-07-29T14:07:18;22.40;99.00
42201;DHT22;27869;51.442;7.540;2022-07-29T14:09:45;22.40;99.90
42201;DHT22;27869;51.442;7.540;2022-07-29T14:12:14;22.40;99.30
42201;DHT22;27869;51.442;7.540;2022-07-29T14:14:40;22.50;99.50
42201;DHT22;27869;51.442;7.540;2022-07-29T14:17:07;22.50;99.60
42201;DHT22;27869;51.442;7.540;2022-07-29T14:19:35;22.50;99.20
42201;DHT22;27869;51.442;7.540;2022-07-29T14:22:03;22.60;99.30
42201;DHT22;27869;51.442;7.540;2022-07-29T14:24:31;22.60;99.00
42201;DHT22;27869;51.442;7.540;2022-07-29T14:26:58;22.60;98.90
42201;DHT22;27869;51.442;7.540;2022-07-29T14:29:26;22.50;99.00
42201;DHT22;27869;51.442;7.540;2022-07-29T14:31:53;22.50;99.10
42201;DHT22;27869;51.442;7.540;2022-07-29T14:34:20;22.60;98.90
42201;DHT22;27869;51.442;7.540;2022-07-29T14:36:47;22.60;99.20
42201;DHT22;27869;51.442;7.540;2022-07-29T14:39:14;22.60;99.50
42201;DHT22;27869;51.442;7.540;2022-07-29T14:41:42;22.70;99.50
42201;DHT22;27869;51.442;7.540;2022-07-29T14:44:09;22.70;99.20
42201;DHT22;27869;51.442;7.540;2022-07-29T14:46:38;22.70;99.00
42201;DHT22;27869;51.442;7.540;2022-07-29T14:49:04;22.70;99.00
42201;DHT22;27869;51.442;7.540;2022-07-29T14:51:32;22.80;98.80
42201;DHT22;27869;51.442;7.540;2022-07-29T14:53:59;22.80;98.90
42201;DHT22;27869;51.442;7.540;2022-07-29T14:56:26;22.80;98.60
42201;DHT22;27869;51.442;7.540;2022-07-29T14:58:55;22.90;98.60
42201;DHT22;27869;51.442;7.540;2022-07-29T15:01:22;22.90;98.60
42201;DHT22;27869;51.442;7.540;2022-07-29T15:03:51;22.90;98.60
42201;DHT22;27869;51.442;7.540;2022-07-29T15:06:18;23.00;98.70
42201;DHT22;27869;51.442;7.540;2022-07-29T15:08:45;23.00;98.60
42201;DHT22;27869;51.442;7.540;2022-07-29T15:11:12;23.10;98.70
42201;DHT22;27869;51.442;7.540;2022-07-29T15:13:39;23.20;98.50
42201;DHT22;27869;51.442;7.540;2022-07-29T15:16:05;23.20;98.40
42201;DHT22;27869;51.442;7.540;2022-07-29T15:18:32;23.30;98.10
42201;DHT22;27869;51.442;7.540;2022-07-29T15:21:01;23.30;98.10
42201;DHT22;27869;51.442;7.540;2022-07-29T15:23:28;23.40;98.50
42201;DHT22;27869;51.442;7.540;2022-07-29T15:25:54;23.40;98.10
42201;DHT22;27869;51.442;7.540;2022-07-29T15:28:21;23.40;97.90
42201;DHT22;27869;51.442;7.540;2022-07-29T15:30:48;23.50;97.80
42201;DHT22;27869;51.442;7.540;2022-07-29T15:33:15;23.50;98.00
42201;DHT22;27869;51.442;7.540;2022-07-29T15:35:43;23.50;97.80
42201;DHT22;27869;51.442;7.540;2022-07-29T15:38:11;23.60;97.80
42201;DHT22;27869;51.442;7.540;2022-07-29T15:40:38;23.60;97.80
42201;DHT22;27869;51.442;7.540;2022-07-29T15:43:07;23.70;97.70
42201;DHT22;27869;51.442;7.540;2022-07-29T15:45:37;23.70;97.80
42201;DHT22;27869;51.442;7.540;2022-07-29T15:48:05;23.70;97.40
42201;DHT22;27869;51.442;7.540;2022-07-29T15:50:33;23.70;97.20